createdAt,value
2023-03-29T00:02:30.384Z,84.68
2023-03-29T00:05:01.805Z,84.80
2023-03-29T00:07:30.137Z,84.65
2023-03-29T00:09:56.680Z,84.25
2023-03-29T00:12:23.094Z,84.12
2023-03-29T00:14:49.549Z,84.07
2023-03-29T00:17:15.969Z,83.98
2023-03-29T00:19:46.497Z,83.88
2023-03-29T00:22:13.931Z,83.97
2023-03-29T00:24:40.805Z,83.89
2023-03-29T00:27:07.218Z,83.57
2023-03-29T00:29:33.740Z,83.61
2023-03-29T00:32:00.193Z,83.33
2023-03-29T00:34:30.705Z,83.43
2023-03-29T00:36:58.324Z,83.07
2023-03-29T00:39:26.450Z,82.97
2023-03-29T00:41:53.846Z,83.30
2023-03-29T00:44:57.941Z,83.00
2023-03-29T00:47:58.321Z,83.36
2023-03-29T00:50:30.809Z,83.12
2023-03-29T00:53:09.050Z,82.61
2023-03-29T00:55:57.850Z,82.93
2023-03-29T00:58:30.491Z,83.03
2023-03-29T01:01:20.827Z,82.84
2023-03-29T01:03:54.474Z,82.70
2023-03-29T01:06:24.813Z,82.72
2023-03-29T01:08:56.099Z,82.66
2023-03-29T01:11:27.027Z,81.95
2023-03-29T01:13:57.771Z,82.04
2023-03-29T01:16:28.430Z,82.00
2023-03-29T01:18:58.230Z,81.73
2023-03-29T01:21:49.321Z,82.01
2023-03-29T01:24:34.438Z,82.14
2023-03-29T01:27:05.426Z,82.23
2023-03-29T01:29:40.139Z,81.87
2023-03-29T01:32:16.869Z,81.70
2023-03-29T01:34:53.138Z,81.33
2023-03-29T01:37:28.523Z,81.52
2023-03-29T01:39:54.972Z,81.58
2023-03-29T01:42:38.609Z,81.97
2023-03-29T01:45:16.096Z,81.21
2023-03-29T01:48:05.467Z,81.24
2023-03-29T01:51:03.696Z,81.28
2023-03-29T01:53:38.094Z,81.20
2023-03-29T01:56:13.135Z,81.02
2023-03-29T01:58:40.991Z,81.32
2023-03-29T02:01:10.460Z,81.30
2023-03-29T02:03:42.299Z,80.91
2023-03-29T02:06:15.931Z,81.04
2023-03-29T02:08:44.697Z,80.80
2023-03-29T02:11:11.379Z,80.86
2023-03-29T02:13:37.814Z,80.73
2023-03-29T02:16:09.761Z,80.62
2023-03-29T02:18:36.274Z,80.86
2023-03-29T02:21:02.870Z,80.60
2023-03-29T02:23:38.614Z,80.89
2023-03-29T02:26:06.657Z,80.64
2023-03-29T02:28:33.362Z,80.40
2023-03-29T02:31:11.653Z,80.20
2023-03-29T02:33:54.410Z,80.66
2023-03-29T02:36:29.390Z,80.17
2023-03-29T02:38:57.955Z,80.30
2023-03-29T02:41:25.740Z,81.27
2023-03-29T02:43:53.234Z,80.55
2023-03-29T02:46:20.901Z,80.34
2023-03-29T02:48:49.605Z,80.41
2023-03-29T02:51:21.432Z,81.18
2023-03-29T02:53:57.135Z,80.71
2023-03-29T02:56:23.821Z,80.47
2023-03-29T02:58:50.218Z,80.85
2023-03-29T03:01:18.231Z,80.94
2023-03-29T03:03:45.155Z,81.07
2023-03-29T03:06:12.307Z,80.87
2023-03-29T03:08:38.807Z,80.71
2023-03-29T03:11:05.565Z,81.00
2023-03-29T03:13:31.956Z,80.70
2023-03-29T03:15:58.346Z,80.77
2023-03-29T03:18:24.779Z,80.77
2023-03-29T03:21:04.601Z,80.81
2023-03-29T03:23:31.230Z,80.39
2023-03-29T03:25:58.915Z,80.45
2023-03-29T03:28:27.195Z,80.54
2023-03-29T03:30:54.242Z,80.82
2023-03-29T03:33:20.732Z,80.24
2023-03-29T03:35:47.873Z,79.91
2023-03-29T03:38:15.196Z,79.72
2023-03-29T03:40:41.552Z,79.83
2023-03-29T03:43:08.009Z,79.88
2023-03-29T03:45:34.779Z,79.60
2023-03-29T03:48:01.151Z,80.58
2023-03-29T03:50:28.059Z,80.49
2023-03-29T03:52:54.434Z,80.39
2023-03-29T03:55:21.969Z,80.52
2023-03-29T03:57:48.831Z,80.45
2023-03-29T04:00:21.427Z,80.45
2023-03-29T04:02:48.434Z,80.46
2023-03-29T04:05:16.282Z,80.46
2023-03-29T04:07:42.915Z,80.95
2023-03-29T04:10:11.019Z,81.12
2023-03-29T04:12:38.052Z,81.10
2023-03-29T04:15:05.813Z,81.26
2023-03-29T04:17:32.328Z,81.67
2023-03-29T04:19:58.804Z,81.63
2023-03-29T04:22:25.735Z,81.74
2023-03-29T04:24:52.276Z,82.18
2023-03-29T04:27:18.872Z,82.95
2023-03-29T04:29:45.278Z,85.03
2023-03-29T04:32:11.833Z,85.56
2023-03-29T04:34:38.314Z,86.34
2023-03-29T04:37:10.319Z,87.62
2023-03-29T04:39:37.540Z,89.29
2023-03-29T04:42:05.103Z,90.51
2023-03-29T04:44:33.908Z,91.41
2023-03-29T04:47:01.469Z,92.03
2023-03-29T04:49:27.885Z,92.84
2023-03-29T04:51:54.494Z,93.18
2023-03-29T04:54:21.279Z,93.43
2023-03-29T04:56:47.682Z,93.63
2023-03-29T04:59:14.076Z,94.04
2023-03-29T05:01:40.510Z,93.91
2023-03-29T05:04:06.902Z,94.26
2023-03-29T05:06:33.307Z,94.46
2023-03-29T05:09:01.127Z,94.34
2023-03-29T05:11:27.620Z,94.76
2023-03-29T05:13:57.069Z,93.92
2023-03-29T05:16:24.475Z,93.77
2023-03-29T05:18:51.632Z,93.76
2023-03-29T05:21:18.470Z,92.95
2023-03-29T05:23:44.823Z,92.79
2023-03-29T05:26:14.528Z,92.97
2023-03-29T05:28:41.983Z,93.00
2023-03-29T05:31:08.929Z,92.63
2023-03-29T05:33:36.398Z,92.35
2023-03-29T05:36:06.201Z,92.05
2023-03-29T05:38:32.875Z,92.30
2023-03-29T05:40:59.771Z,91.69
2023-03-29T05:43:27.070Z,91.14
2023-03-29T05:45:54.806Z,90.50
2023-03-29T05:48:23.255Z,90.47
2023-03-29T05:50:51.133Z,90.28
2023-03-29T05:53:18.645Z,90.34
2023-03-29T05:55:46.603Z,90.25
2023-03-29T05:58:14.342Z,90.70
2023-03-29T06:00:41.715Z,90.22
2023-03-29T06:03:18.088Z,89.50
2023-03-29T06:05:49.933Z,89.23
2023-03-29T06:08:17.051Z,89.12
2023-03-29T06:10:43.650Z,89.97
2023-03-29T06:13:10.762Z,89.39
2023-03-29T06:15:37.150Z,89.13
2023-03-29T06:18:04.533Z,88.36
2023-03-29T06:20:31.269Z,88.42
2023-03-29T06:22:58.412Z,87.89
2023-03-29T06:25:24.972Z,88.08
2023-03-29T06:27:52.126Z,87.62
2023-03-29T06:30:19.701Z,86.71
2023-03-29T06:32:46.380Z,86.34
2023-03-29T06:35:12.814Z,85.34
2023-03-29T06:37:41.093Z,85.00
2023-03-29T06:40:09.343Z,84.76
2023-03-29T06:42:35.798Z,84.56
2023-03-29T06:45:02.576Z,84.29
2023-03-29T06:47:31.371Z,84.85
2023-03-29T06:49:57.903Z,84.71
2023-03-29T06:52:24.355Z,84.79
2023-03-29T06:54:50.792Z,83.74
2023-03-29T06:57:17.753Z,83.93
2023-03-29T06:59:44.380Z,83.25
2023-03-29T07:02:12.403Z,83.48
2023-03-29T07:04:39.667Z,82.53
2023-03-29T07:07:07.645Z,81.86
2023-03-29T07:09:35.940Z,81.57
2023-03-29T07:12:02.442Z,81.61
2023-03-29T07:14:29.865Z,81.20
2023-03-29T07:16:58.402Z,80.63
2023-03-29T07:19:27.345Z,80.98
2023-03-29T07:21:54.264Z,80.48
2023-03-29T07:24:21.400Z,80.31
2023-03-29T07:27:00.054Z,80.26
2023-03-29T07:29:29.359Z,80.26
2023-03-29T07:31:56.364Z,79.31
2023-03-29T07:34:22.822Z,79.17
2023-03-29T07:36:49.192Z,79.80
2023-03-29T07:39:15.637Z,79.84
2023-03-29T07:41:42.024Z,79.10
2023-03-29T07:44:09.307Z,78.40
2023-03-29T07:46:36.307Z,78.32
2023-03-29T07:49:05.667Z,78.18
2023-03-29T07:51:32.069Z,78.46
2023-03-29T07:53:59.704Z,79.05
2023-03-29T07:56:26.399Z,77.84
2023-03-29T07:58:52.918Z,78.32
2023-03-29T08:01:19.782Z,79.28
2023-03-29T08:03:46.563Z,79.13
2023-03-29T08:06:13.039Z,78.73
2023-03-29T08:08:39.430Z,79.04
2023-03-29T08:11:08.845Z,79.34
2023-03-29T08:13:35.423Z,79.46
2023-03-29T08:16:01.977Z,79.51
2023-03-29T08:18:28.346Z,79.82
2023-03-29T08:20:54.741Z,79.57
2023-03-29T08:23:21.156Z,79.88
2023-03-29T08:25:47.665Z,80.01
2023-03-29T08:28:14.023Z,79.59
2023-03-29T08:30:40.467Z,79.12
2023-03-29T08:33:06.938Z,78.70
2023-03-29T08:35:33.447Z,78.63
2023-03-29T08:37:59.998Z,78.54
2023-03-29T08:40:29.994Z,78.23
2023-03-29T08:43:07.847Z,78.00
2023-03-29T08:45:47.398Z,78.13
2023-03-29T08:48:21.560Z,78.28
2023-03-29T08:50:54.405Z,77.91
2023-03-29T08:53:28.769Z,77.23
2023-03-29T08:55:59.672Z,77.25
2023-03-29T08:58:31.399Z,77.54
2023-03-29T09:01:00.110Z,77.49
2023-03-29T09:03:42.093Z,77.76
2023-03-29T09:06:11.048Z,77.30
2023-03-29T09:08:41.295Z,77.38
2023-03-29T09:11:29.382Z,77.07
2023-03-29T09:14:17.403Z,76.17
2023-03-29T09:17:03.045Z,76.97
2023-03-29T09:19:58.797Z,76.08
2023-03-29T09:22:39.105Z,75.69
2023-03-29T09:25:27.475Z,75.02
2023-03-29T09:28:17.292Z,74.70
2023-03-29T09:31:13.538Z,74.89
2023-03-29T09:33:43.902Z,74.19
2023-03-29T09:36:23.599Z,73.60
2023-03-29T09:38:54.203Z,73.54
2023-03-29T09:41:33.759Z,73.27
2023-03-29T09:44:05.750Z,73.37
2023-03-29T09:46:42.220Z,73.43
2023-03-29T09:49:21.103Z,72.32
2023-03-29T09:51:49.698Z,71.78
2023-03-29T09:54:16.877Z,71.98
2023-03-29T09:56:43.417Z,72.03
2023-03-29T09:59:12.688Z,71.96
2023-03-29T10:01:46.669Z,71.69
2023-03-29T10:04:14.209Z,71.35
2023-03-29T10:06:50.192Z,71.56
2023-03-29T10:09:24.065Z,71.35
2023-03-29T10:11:56.767Z,71.69
2023-03-29T10:14:35.323Z,71.75
2023-03-29T10:17:06.028Z,71.76
2023-03-29T10:19:34.923Z,70.58
2023-03-29T10:22:23.165Z,70.58
2023-03-29T10:24:52.102Z,70.74
2023-03-29T10:27:30.382Z,70.13
2023-03-29T10:29:59.517Z,69.68
2023-03-29T10:32:33.674Z,70.25
2023-03-29T10:35:24.052Z,70.51
2023-03-29T10:37:57.509Z,70.53
2023-03-29T10:40:30.871Z,69.94
2023-03-29T10:43:11.186Z,69.44
2023-03-29T10:45:38.876Z,68.94
2023-03-29T10:48:06.905Z,68.03
2023-03-29T10:50:35.873Z,67.50
2023-03-29T10:53:03.990Z,66.62
2023-03-29T10:55:40.999Z,66.36
2023-03-29T10:58:23.534Z,66.08
2023-03-29T11:00:56.209Z,66.08
2023-03-29T11:03:26.932Z,65.37
2023-03-29T11:06:11.627Z,63.40
2023-03-29T11:08:48.953Z,62.05
2023-03-29T11:11:36.839Z,59.17
2023-03-29T11:14:32.526Z,56.46
2023-03-29T11:17:12.707Z,56.34
2023-03-29T11:19:52.293Z,54.24
2023-03-29T11:22:36.423Z,55.94
2023-03-29T11:25:44.741Z,57.73
2023-03-29T11:28:19.583Z,60.05
2023-03-29T11:31:04.686Z,61.56
2023-03-29T11:33:50.970Z,63.19
2023-03-29T11:36:22.432Z,64.65
2023-03-29T11:39:13.141Z,65.25
2023-03-29T11:41:44.435Z,66.36
2023-03-29T11:44:33.195Z,66.04
2023-03-29T11:47:02.340Z,65.75
2023-03-29T11:49:46.707Z,65.50
2023-03-29T11:52:18.938Z,65.74
2023-03-29T11:54:51.493Z,66.16
2023-03-29T11:57:27.426Z,66.49
2023-03-29T12:00:15.840Z,66.51
2023-03-29T12:03:05.487Z,67.25
2023-03-29T12:05:42.107Z,68.01
2023-03-29T12:08:16.367Z,67.79
2023-03-29T12:10:56.630Z,67.66
2023-03-29T12:13:33.743Z,67.45
2023-03-29T12:16:08.756Z,67.44
2023-03-29T12:18:42.371Z,67.42
2023-03-29T12:21:17.143Z,67.82
2023-03-29T12:23:44.684Z,67.79
2023-03-29T12:26:20.372Z,67.60
2023-03-29T12:28:49.478Z,67.24
2023-03-29T12:31:15.853Z,67.47
2023-03-29T12:33:58.480Z,66.78
2023-03-29T12:36:54.081Z,66.34
2023-03-29T12:39:21.510Z,66.85
2023-03-29T12:41:53.342Z,66.20
2023-03-29T12:44:24.149Z,66.42
2023-03-29T12:46:57.536Z,66.64
2023-03-29T12:49:29.496Z,66.51
2023-03-29T12:51:58.471Z,66.95
2023-03-29T12:54:28.600Z,66.94
2023-03-29T12:57:00.259Z,68.00
2023-03-29T12:59:47.147Z,67.74
2023-03-29T13:02:17.510Z,67.77
2023-03-29T13:04:43.890Z,67.08
2023-03-29T13:07:31.225Z,67.66
2023-03-29T13:10:30.764Z,67.20
2023-03-29T13:12:57.974Z,66.96
2023-03-29T13:15:26.692Z,66.81
2023-03-29T13:18:06.987Z,66.58
2023-03-29T13:20:47.176Z,66.93
2023-03-29T13:23:58.631Z,66.41
2023-03-29T13:26:41.082Z,66.23
2023-03-29T13:29:36.360Z,66.77
2023-03-29T13:32:11.986Z,66.90
2023-03-29T13:35:19.267Z,67.35
2023-03-29T13:38:15.562Z,67.38
2023-03-29T13:40:51.894Z,68.19
2023-03-29T13:43:21.110Z,67.57
2023-03-29T13:45:56.554Z,67.48
2023-03-29T13:48:31.869Z,67.34
2023-03-29T13:51:08.118Z,67.33
2023-03-29T13:53:37.245Z,67.33
2023-03-29T13:56:07.782Z,67.46
2023-03-29T13:58:42.773Z,66.99
2023-03-29T14:01:36.455Z,66.12
2023-03-29T14:04:05.846Z,66.27
2023-03-29T14:06:34.769Z,65.66
2023-03-29T14:09:06.263Z,65.18
2023-03-29T14:11:33.329Z,64.55
2023-03-29T14:14:02.804Z,64.42
2023-03-29T14:16:35.271Z,64.58
2023-03-29T14:19:11.718Z,65.07
2023-03-29T14:21:38.160Z,65.53
2023-03-29T14:24:05.231Z,65.54
2023-03-29T14:26:35.791Z,66.11
2023-03-29T14:29:02.828Z,65.80
2023-03-29T14:31:36.048Z,65.65
2023-03-29T14:34:05.978Z,65.71
2023-03-29T14:36:33.491Z,65.74
2023-03-29T14:39:05.511Z,65.81
2023-03-29T14:41:37.593Z,65.80
2023-03-29T14:44:06.722Z,66.09
2023-03-29T14:46:34.092Z,66.31
2023-03-29T14:49:02.164Z,65.98
2023-03-29T14:51:31.005Z,65.81
2023-03-29T14:54:00.185Z,66.37
2023-03-29T14:56:27.550Z,65.90
2023-03-29T14:58:56.465Z,66.16
2023-03-29T15:01:25.742Z,66.17
2023-03-29T15:03:56.200Z,66.29
2023-03-29T15:06:25.111Z,65.68
2023-03-29T15:09:04.405Z,66.05
2023-03-29T15:11:33.731Z,65.23
2023-03-29T15:14:08.987Z,65.91
2023-03-29T15:16:44.124Z,65.61
2023-03-29T15:19:18.058Z,65.49
2023-03-29T15:21:45.273Z,65.62
2023-03-29T15:24:21.997Z,65.62
2023-03-29T15:26:59.806Z,65.67
2023-03-29T15:29:35.178Z,65.83
2023-03-29T15:32:02.309Z,66.19
2023-03-29T15:34:33.332Z,66.17
2023-03-29T15:37:00.942Z,66.51
2023-03-29T15:39:28.669Z,66.75
2023-03-29T15:41:56.946Z,67.18
2023-03-29T15:44:28.980Z,67.43
2023-03-29T15:46:57.741Z,67.62
2023-03-29T15:49:24.906Z,67.39
2023-03-29T15:51:55.135Z,67.57
2023-03-29T15:54:22.231Z,67.63
2023-03-29T15:56:53.584Z,67.83
2023-03-29T15:59:20.378Z,67.91
2023-03-29T16:01:47.469Z,67.10
2023-03-29T16:04:18.989Z,67.10
2023-03-29T16:06:48.577Z,67.44
2023-03-29T16:09:17.781Z,67.07
2023-03-29T16:11:46.007Z,67.87
2023-03-29T16:14:22.883Z,67.30
2023-03-29T16:16:50.298Z,67.08
2023-03-29T16:19:16.747Z,67.14
2023-03-29T16:21:43.617Z,67.20
2023-03-29T16:24:19.604Z,67.69
2023-03-29T16:26:46.458Z,67.58
2023-03-29T16:29:12.832Z,67.73
2023-03-29T16:31:39.408Z,67.39
2023-03-29T16:34:06.124Z,67.60
2023-03-29T16:36:33.715Z,67.31
2023-03-29T16:39:00.413Z,66.58
2023-03-29T16:41:27.022Z,67.11
2023-03-29T16:43:53.372Z,67.71
2023-03-29T16:46:19.854Z,67.12
2023-03-29T16:48:46.384Z,67.14
2023-03-29T16:51:12.750Z,67.78
2023-03-29T16:53:39.153Z,67.63
2023-03-29T16:56:06.049Z,67.91
2023-03-29T16:58:32.552Z,68.19
2023-03-29T17:01:09.540Z,68.72
2023-03-29T17:03:37.245Z,68.66
2023-03-29T17:06:04.759Z,68.72
2023-03-29T17:08:32.352Z,69.22
2023-03-29T17:10:59.054Z,68.90
2023-03-29T17:13:25.977Z,68.85
2023-03-29T17:15:54.330Z,68.92
2023-03-29T17:18:22.083Z,69.04
2023-03-29T17:20:51.233Z,68.20
2023-03-29T17:23:17.786Z,68.54
2023-03-29T17:25:44.208Z,68.28
2023-03-29T17:28:10.978Z,67.75
2023-03-29T17:30:37.837Z,68.41
2023-03-29T17:33:05.102Z,68.04
2023-03-29T17:35:32.344Z,68.05
2023-03-29T17:37:58.858Z,68.13
2023-03-29T17:40:25.676Z,68.81
2023-03-29T17:42:52.554Z,68.80
2023-03-29T17:45:19.816Z,68.94
2023-03-29T17:47:46.338Z,69.04
2023-03-29T17:50:12.938Z,68.99
2023-03-29T17:52:39.712Z,69.37
2023-03-29T17:55:13.372Z,69.89
2023-03-29T17:57:41.049Z,69.86
2023-03-29T18:00:12.020Z,69.93
2023-03-29T18:02:39.708Z,70.32
2023-03-29T18:05:08.199Z,70.89
2023-03-29T18:07:34.651Z,71.30
2023-03-29T18:10:01.363Z,71.61
2023-03-29T18:12:28.760Z,72.23
2023-03-29T18:14:56.889Z,72.38
2023-03-29T18:17:24.459Z,72.54
2023-03-29T18:19:51.420Z,73.01
2023-03-29T18:22:18.559Z,73.54
2023-03-29T18:24:46.390Z,73.89
2023-03-29T18:27:13.200Z,74.16
2023-03-29T18:29:39.640Z,74.53
2023-03-29T18:32:07.075Z,75.05
2023-03-29T18:34:34.230Z,75.54
2023-03-29T18:37:00.889Z,75.94
2023-03-29T18:39:27.972Z,76.22
2023-03-29T18:41:54.388Z,76.58
2023-03-29T18:44:22.608Z,76.89
2023-03-29T18:46:48.994Z,77.11
2023-03-29T18:49:15.358Z,77.24
2023-03-29T18:51:42.168Z,77.72
2023-03-29T18:54:08.957Z,77.93
2023-03-29T18:56:35.837Z,78.39
2023-03-29T18:59:06.088Z,78.68
2023-03-29T19:01:33.236Z,79.01
2023-03-29T19:03:59.898Z,78.95
2023-03-29T19:06:26.423Z,79.39
2023-03-29T19:08:53.997Z,79.76
2023-03-29T19:11:20.530Z,80.12
2023-03-29T19:13:50.131Z,80.18
2023-03-29T19:16:17.273Z,79.84
2023-03-29T19:18:43.810Z,80.06
2023-03-29T19:21:10.674Z,80.33
2023-03-29T19:23:37.465Z,80.48
2023-03-29T19:26:05.798Z,80.59
2023-03-29T19:28:33.546Z,80.69
2023-03-29T19:31:01.860Z,80.67
2023-03-29T19:33:29.273Z,80.70
2023-03-29T19:35:56.502Z,80.51
2023-03-29T19:38:23.383Z,80.40
2023-03-29T19:40:51.328Z,80.51
2023-03-29T19:43:18.305Z,80.29
2023-03-29T19:45:46.111Z,79.85
2023-03-29T19:48:21.900Z,79.63
2023-03-29T19:50:49.435Z,79.74
2023-03-29T19:53:15.860Z,79.65
2023-03-29T19:55:44.101Z,79.73
2023-03-29T19:58:10.613Z,79.87
2023-03-29T20:00:38.795Z,79.76
2023-03-29T20:03:09.120Z,79.62
2023-03-29T20:05:37.144Z,79.89
2023-03-29T20:08:03.902Z,79.97
2023-03-29T20:10:30.609Z,79.63
2023-03-29T20:12:57.045Z,79.88
2023-03-29T20:15:26.257Z,79.74
2023-03-29T20:17:55.336Z,79.99
2023-03-29T20:20:25.519Z,80.01
2023-03-29T20:22:53.913Z,80.13
2023-03-29T20:25:21.137Z,80.05
2023-03-29T20:27:49.508Z,80.58
2023-03-29T20:30:16.360Z,80.66
2023-03-29T20:32:43.028Z,80.54
2023-03-29T20:35:11.030Z,80.47
2023-03-29T20:37:37.473Z,80.74
2023-03-29T20:40:05.368Z,80.89
2023-03-29T20:42:34.284Z,80.71
2023-03-29T20:45:01.852Z,81.45
2023-03-29T20:47:29.296Z,81.25
2023-03-29T20:49:56.736Z,81.15
2023-03-29T20:52:24.374Z,81.13
2023-03-29T20:54:51.007Z,81.32
2023-03-29T20:57:20.668Z,81.89
2023-03-29T20:59:49.145Z,81.79
2023-03-29T21:02:21.755Z,82.01
2023-03-29T21:04:52.791Z,82.25
2023-03-29T21:07:21.222Z,82.43
2023-03-29T21:09:49.800Z,82.27
2023-03-29T21:12:16.701Z,82.39
2023-03-29T21:14:43.485Z,82.47
2023-03-29T21:17:10.263Z,82.78
2023-03-29T21:19:38.217Z,82.47
2023-03-29T21:22:05.308Z,82.56
2023-03-29T21:24:32.969Z,82.76
2023-03-29T21:27:00.514Z,82.37
2023-03-29T21:29:27.295Z,82.55
2023-03-29T21:31:54.017Z,82.47
2023-03-29T21:34:20.559Z,82.24
2023-03-29T21:36:47.128Z,82.30
2023-03-29T21:39:13.630Z,82.16
2023-03-29T21:41:39.989Z,82.13
2023-03-29T21:44:06.444Z,81.74
2023-03-29T21:46:32.969Z,81.75
2023-03-29T21:48:59.312Z,81.89
2023-03-29T21:51:25.691Z,81.80
2023-03-29T21:53:52.052Z,81.97
2023-03-29T21:56:18.388Z,81.42
2023-03-29T21:58:44.842Z,81.44
2023-03-29T22:01:11.252Z,81.07
2023-03-29T22:03:38.030Z,81.03
2023-03-29T22:06:10.390Z,80.55
2023-03-29T22:08:40.073Z,80.39
2023-03-29T22:11:10.910Z,80.30
2023-03-29T22:13:37.681Z,79.97
2023-03-29T22:16:05.409Z,80.18
2023-03-29T22:18:42.887Z,79.78
2023-03-29T22:21:14.394Z,79.95
2023-03-29T22:23:42.316Z,79.57
2023-03-29T22:26:11.006Z,79.84
2023-03-29T22:28:37.953Z,79.54
2023-03-29T22:31:06.999Z,79.60
2023-03-29T22:33:34.714Z,79.82
2023-03-29T22:36:02.473Z,79.47
2023-03-29T22:38:29.424Z,79.57
2023-03-29T22:40:55.956Z,79.44
2023-03-29T22:43:22.388Z,79.58
2023-03-29T22:45:48.836Z,79.17
2023-03-29T22:48:15.406Z,78.83
2023-03-29T22:50:42.889Z,78.79
2023-03-29T22:53:10.199Z,78.83
2023-03-29T22:55:37.092Z,78.59
2023-03-29T22:58:04.011Z,78.73
2023-03-29T23:00:30.886Z,78.64
2023-03-29T23:02:57.655Z,78.41
2023-03-29T23:05:24.217Z,78.55
2023-03-29T23:07:50.629Z,78.54
2023-03-29T23:10:17.395Z,78.41
2023-03-29T23:12:43.856Z,78.18
2023-03-29T23:15:11.309Z,77.94
2023-03-29T23:17:37.694Z,78.38
2023-03-29T23:20:08.359Z,78.47
2023-03-29T23:22:36.239Z,78.16
2023-03-29T23:25:02.633Z,77.90
2023-03-29T23:27:29.212Z,78.03
2023-03-29T23:29:56.208Z,78.03
2023-03-29T23:32:22.586Z,77.45
2023-03-29T23:34:48.942Z,77.37
2023-03-29T23:37:15.331Z,77.14
2023-03-29T23:39:41.766Z,77.21
2023-03-29T23:42:08.161Z,77.10
2023-03-29T23:44:34.539Z,76.81
2023-03-29T23:47:00.973Z,76.81
2023-03-29T23:49:28.105Z,77.07
2023-03-29T23:51:55.894Z,76.43
2023-03-29T23:54:22.472Z,75.90
2023-03-29T23:56:48.915Z,76.41
2023-03-29T23:59:15.346Z,75.61
